Time;durP1;ratioP1;P1;durP2;ratioP2;P2;SDS_P1;SDS_P2;PMS_P1;PMS_P2;Temp;Humidity;BMP_temperature;BMP_pressure;BME280_temperature;BME280_humidity;BME280_pressure;Samples;Min_cycle;Max_cycle;Signal;HPM_P1;HPM_P2
2023/07/06 00:00:52;;;;;;;7.50;4.10;;;21.00;36.30;;;;;;5071891;28;20418;-53
2023/07/06 00:03:20;;;;;;;6.50;4.00;;;20.90;36.40;;;;;;5072147;28;20775;-56
2023/07/06 00:05:46;;;;;;;5.63;3.60;;;20.90;36.10;;;;;;5071901;28;20406;-53
2023/07/06 00:08:14;;;;;;;6.30;3.90;;;20.90;36.50;;;;;;5072031;28;20196;-53
2023/07/06 00:10:42;;;;;;;7.50;4.50;;;20.80;36.40;;;;;;5071949;28;20415;-56
2023/07/06 00:13:09;;;;;;;6.93;4.30;;;20.70;36.10;;;;;;5071904;28;20550;-56
2023/07/06 00:15:35;;;;;;;7.57;4.67;;;20.70;35.90;;;;;;5072026;28;20410;-55
2023/07/06 00:18:03;;;;;;;9.93;4.40;;;20.60;36.10;;;;;;5071912;28;20423;-56
2023/07/06 00:20:33;;;;;;;6.23;3.90;;;20.50;35.90;;;;;;5071522;28;20407;-53
2023/07/06 00:23:01;;;;;;;5.10;3.63;;;20.40;35.90;;;;;;5071937;28;20978;-56
2023/07/06 00:25:28;;;;;;;8.83;4.10;;;20.40;36.30;;;;;;5071884;28;20395;-53
2023/07/06 00:27:54;;;;;;;5.60;3.90;;;20.30;36.10;;;;;;5071904;28;20403;-54
2023/07/06 00:30:40;;;;;;;6.00;3.43;;;20.30;36.20;;;;;;5071922;28;20404;-57
2023/07/06 00:33:07;;;;;;;5.30;3.77;;;20.30;36.50;;;;;;5071762;28;20387;-56
2023/07/06 00:35:33;;;;;;;5.63;4.03;;;20.30;36.50;;;;;;5071911;28;20411;-54
2023/07/06 00:38:00;;;;;;;6.10;3.88;;;20.30;36.40;;;;;;5072014;28;20177;-56
2023/07/06 00:40:31;;;;;;;5.18;4.00;;;20.20;36.10;;;;;;5071606;28;20169;-54
2023/07/06 00:42:57;;;;;;;6.03;4.57;;;20.20;36.20;;;;;;5071804;28;20179;-56
2023/07/06 00:45:24;;;;;;;7.30;3.80;;;20.20;36.50;;;;;;5071643;28;20587;-56
2023/07/06 00:47:56;;;;;;;6.35;4.05;;;20.30;35.90;;;;;;5071684;28;20173;-54
2023/07/06 00:50:27;;;;;;;4.35;3.28;;;20.30;36.20;;;;;;5071688;28;20157;-56
2023/07/06 00:53:12;;;;;;;4.90;3.65;;;20.30;35.70;;;;;;5071936;28;20248;-54
2023/07/06 00:55:42;;;;;;;8.73;4.63;;;20.20;35.90;;;;;;5072748;28;20259;-56
2023/07/06 00:58:20;;;;;;;5.78;3.63;;;20.20;36.20;;;;;;5075477;28;20418;-56
2023/07/06 01:00:47;;;;;;;5.13;3.58;;;20.10;36.30;;;;;;5075269;28;20210;-53
2023/07/06 01:03:19;;;;;;;5.10;3.60;;;20.10;36.80;;;;;;5075326;28;20180;-56
2023/07/06 01:05:46;;;;;;;6.20;4.38;;;20.10;37.10;;;;;;5074097;28;20189;-56
2023/07/06 01:08:14;;;;;;;6.30;4.15;;;20.10;36.90;;;;;;5075125;28;20192;-54
2023/07/06 01:10:41;;;;;;;8.70;4.00;;;20.10;37.50;;;;;;5075003;28;20234;-54
2023/07/06 01:13:07;;;;;;;9.20;4.20;;;20.10;37.50;;;;;;5075013;28;20495;-56
2023/07/06 01:15:40;;;;;;;6.07;4.53;;;20.10;37.60;;;;;;5075317;28;20570;-54
2023/07/06 01:18:18;;;;;;;6.03;4.13;;;20.10;37.50;;;;;;5075044;28;20419;-54
2023/07/06 01:21:06;;;;;;;6.93;3.90;;;20.10;37.30;;;;;;5074753;28;20403;-56
2023/07/06 01:23:56;;;;;;;7.78;4.07;;;20.10;37.00;;;;;;5075038;28;20173;-53
2023/07/06 01:27:00;;;;;;;6.53;3.65;;;20.10;37.10;;;;;;5074991;28;20153;-56
2023/07/06 01:29:54;;;;;;;10.23;4.05;;;20.10;37.00;;;;;;5074627;28;20676;-54
2023/07/06 01:32:27;;;;;;;9.95;3.80;;;20.00;36.90;;;;;;5075138;28;20184;-54
2023/07/06 01:35:20;;;;;;;6.53;3.83;;;19.90;37.50;;;;;;5074834;28;20201;-56
2023/07/06 01:37:45;;;;;;;5.07;3.90;;;19.90;37.60;;;;;;5074686;28;20179;-53
2023/07/06 01:40:12;;;;;;;5.90;4.00;;;19.90;37.50;;;;;;5074420;28;20421;-56
2023/07/06 01:42:40;;;;;;;5.85;3.90;;;19.90;37.80;;;;;;5074747;28;20169;-58
2023/07/06 01:45:16;;;;;;;10.15;4.80;;;19.90;37.70;;;;;;5074867;28;20264;-53
2023/07/06 01:47:46;;;;;;;9.07;4.47;;;19.90;37.10;;;;;;5074437;28;20323;-56
2023/07/06 01:50:14;;;;;;;6.40;4.45;;;19.90;37.30;;;;;;5074342;28;20183;-55
2023/07/06 01:52:49;;;;;;;6.00;4.10;;;19.90;37.30;;;;;;5073291;28;20172;-54
2023/07/06 01:55:15;;;;;;;4.97;3.90;;;19.90;37.60;;;;;;5074601;28;20456;-57
2023/07/06 01:58:12;;;;;;;7.57;4.07;;;19.90;37.70;;;;;;5074225;28;20251;-54
2023/07/06 02:00:49;;;;;;;7.00;3.95;;;19.80;38.00;;;;;;5074223;28;20703;-54
2023/07/06 02:03:16;;;;;;;5.15;3.80;;;19.80;36.50;;;;;;5074047;28;20656;-56
2023/07/06 02:05:43;;;;;;;6.65;3.88;;;19.80;36.20;;;;;;5074292;28;20252;-55
2023/07/06 02:08:10;;;;;;;5.00;3.75;;;19.80;36.70;;;;;;5073753;28;20211;-56
2023/07/06 02:10:36;;;;;;;6.82;4.35;;;19.70;36.90;;;;;;5073930;28;20169;-53
2023/07/06 02:13:03;;;;;;;5.10;3.57;;;19.70;36.70;;;;;;5074017;28;20192;-56
2023/07/06 02:15:30;;;;;;;5.32;4.20;;;19.70;37.00;;;;;;5073988;28;20699;-54
2023/07/06 02:17:56;;;;;;;6.68;4.03;;;19.70;37.40;;;;;;5074138;28;20180;-54
2023/07/06 02:20:22;;;;;;;6.07;4.30;;;19.70;37.20;;;;;;5072454;28;20177;-55
2023/07/06 02:22:49;;;;;;;9.00;4.38;;;19.70;37.10;;;;;;5073890;28;20176;-54
2023/07/06 02:25:15;;;;;;;5.93;3.92;;;19.70;36.80;;;;;;5073766;28;20173;-53
2023/07/06 02:27:41;;;;;;;12.00;3.90;;;19.70;36.70;;;;;;5073788;28;20169;-55
2023/07/06 02:30:08;;;;;;;5.25;3.38;;;19.60;37.10;;;;;;5073588;28;20168;-57
2023/07/06 02:32:34;;;;;;;6.18;3.75;;;19.50;36.80;;;;;;5073912;28;20185;-54
2023/07/06 02:35:02;;;;;;;5.43;4.85;;;19.60;36.80;;;;;;5073673;28;20230;-56
2023/07/06 02:37:30;;;;;;;6.80;3.97;;;19.50;37.20;;;;;;5073654;28;20185;-54
2023/07/06 02:39:58;;;;;;;10.07;3.80;;;19.50;37.30;;;;;;5071945;28;20192;-54
2023/07/06 02:42:25;;;;;;;6.50;3.60;;;19.50;37.40;;;;;;5073807;28;20176;-57
2023/07/06 02:44:52;;;;;;;6.38;4.47;;;19.60;37.00;;;;;;5073665;28;20211;-55
2023/07/06 02:47:18;;;;;;;6.18;4.25;;;19.60;36.50;;;;;;5073352;28;20205;-54
2023/07/06 02:49:44;;;;;;;6.07;3.60;;;19.50;36.80;;;;;;5073254;28;20193;-57
2023/07/06 02:52:09;;;;;;;6.80;4.30;;;19.60;37.00;;;;;;5073626;28;20521;-54
2023/07/06 02:54:36;;;;;;;6.80;4.70;;;19.60;37.00;;;;;;5073135;28;20195;-55
2023/07/06 02:57:01;;;;;;;7.57;4.63;;;19.60;37.30;;;;;;5073224;28;20584;-57
2023/07/06 02:59:29;;;;;;;6.77;4.60;;;19.50;37.20;;;;;;5072968;28;20189;-57
2023/07/06 03:01:57;;;;;;;4.90;3.60;;;19.60;37.20;;;;;;5073086;28;20230;-54
2023/07/06 03:04:23;;;;;;;7.95;4.75;;;19.60;37.40;;;;;;5073060;28;20584;-54
2023/07/06 03:06:49;;;;;;;8.48;4.25;;;19.60;37.50;;;;;;5071757;28;20183;-58
2023/07/06 03:09:15;;;;;;;5.45;3.75;;;19.50;37.30;;;;;;5072552;28;20196;-57
2023/07/06 03:11:44;;;;;;;5.18;3.33;;;19.50;37.70;;;;;;5073258;28;20200;-54
2023/07/06 03:14:12;;;;;;;6.72;4.70;;;19.40;37.70;;;;;;5073064;28;20212;-55
2023/07/06 03:16:41;;;;;;;7.63;4.90;;;19.40;38.20;;;;;;5072737;28;20195;-57
2023/07/06 03:19:08;;;;;;;8.65;4.45;;;19.40;38.40;;;;;;5071902;28;20283;-54
2023/07/06 03:21:35;;;;;;;11.85;4.18;;;19.40;38.50;;;;;;5072539;28;20254;-54
2023/07/06 03:24:01;;;;;;;10.32;4.20;;;19.40;38.40;;;;;;5072707;28;20172;-57
2023/07/06 03:26:26;;;;;;;7.70;4.57;;;19.40;38.60;;;;;;5072793;28;20749;-56
2023/07/06 03:28:52;;;;;;;5.77;4.10;;;19.40;38.80;;;;;;5072524;28;20228;-55
2023/07/06 03:31:19;;;;;;;6.20;4.40;;;19.30;39.00;;;;;;5072334;28;20414;-56
2023/07/06 03:33:45;;;;;;;7.75;5.20;;;19.30;39.00;;;;;;5072432;28;20208;-55
2023/07/06 03:36:11;;;;;;;7.10;4.55;;;19.30;38.50;;;;;;5072410;28;20173;-55
2023/07/06 03:38:37;;;;;;;8.40;4.80;;;19.30;38.50;;;;;;5072387;28;20208;-55
2023/07/06 03:41:06;;;;;;;6.23;4.60;;;19.20;38.70;;;;;;5072232;28;20898;-57
2023/07/06 03:43:33;;;;;;;14.88;5.47;;;19.20;38.90;;;;;;5072415;28;20525;-54
2023/07/06 03:45:59;;;;;;;9.15;4.97;;;19.20;38.80;;;;;;5072358;28;20549;-55
2023/07/06 03:48:26;;;;;;;6.50;4.80;;;19.20;39.00;;;;;;5072476;28;20200;-57
2023/07/06 03:50:52;;;;;;;7.65;3.85;;;19.20;39.30;;;;;;5072049;28;20180;-58
2023/07/06 03:53:21;;;;;;;8.55;5.10;;;19.30;39.50;;;;;;5072362;28;20258;-55
2023/07/06 03:55:51;;;;;;;9.25;4.38;;;19.30;39.90;;;;;;5072157;28;20691;-57
2023/07/06 03:58:21;;;;;;;14.07;5.68;;;19.30;39.70;;;;;;5072373;28;20564;-55
2023/07/06 04:00:47;;;;;;;7.32;4.60;;;19.40;39.00;;;;;;5071966;28;20184;-59
2023/07/06 04:03:13;;;;;;;7.80;4.50;;;19.40;39.20;;;;;;5072113;28;20173;-57
2023/07/06 04:05:43;;;;;;;6.00;4.10;;;19.40;39.70;;;;;;5072075;28;20199;-55
2023/07/06 04:08:13;;;;;;;8.50;3.42;;;19.40;39.70;;;;;;5072007;28;20196;-58
2023/07/06 04:10:40;;;;;;;7.82;4.10;;;19.60;38.90;;;;;;5071838;28;20666;-57
2023/07/06 04:13:08;;;;;;;7.45;5.15;;;19.70;38.20;;;;;;5071935;28;20199;-54
2023/07/06 04:15:34;;;;;;;7.47;4.28;;;19.80;37.70;;;;;;5071951;28;20172;-55
2023/07/06 04:18:03;;;;;;;6.53;4.15;;;19.90;38.80;;;;;;5071927;28;20165;-57
2023/07/06 04:20:30;;;;;;;10.77;4.55;;;20.00;39.90;;;;;;5070497;28;20253;-54
2023/07/06 04:22:57;;;;;;;6.72;4.20;;;20.00;38.50;;;;;;5070894;28;20169;-56
2023/07/06 04:25:31;;;;;;;7.20;4.03;;;20.10;38.90;;;;;;5071816;28;20548;-56
2023/07/06 04:28:03;;;;;;;7.82;5.45;;;20.20;38.00;;;;;;5071903;28;20153;-55
2023/07/06 04:30:33;;;;;;;4.93;3.60;;;20.30;38.00;;;;;;5073879;28;20190;-54
2023/07/06 04:33:00;;;;;;;8.45;4.70;;;20.30;38.20;;;;;;5076003;28;20540;-58
2023/07/06 04:35:26;;;;;;;10.00;4.03;;;20.40;37.80;;;;;;5076000;28;20183;-55
2023/07/06 04:37:53;;;;;;;6.07;4.30;;;20.40;37.40;;;;;;5075919;28;20168;-55
2023/07/06 04:40:21;;;;;;;5.70;3.65;;;20.50;37.40;;;;;;5075697;28;20169;-54
2023/07/06 04:42:51;;;;;;;7.82;4.18;;;20.50;37.60;;;;;;5075735;28;20184;-57
2023/07/06 04:45:18;;;;;;;7.07;5.05;;;20.60;37.30;;;;;;5075694;28;20551;-55
2023/07/06 04:47:44;;;;;;;11.68;4.20;;;20.60;37.40;;;;;;5075635;28;20192;-55
2023/07/06 04:50:17;;;;;;;6.50;4.55;;;20.80;37.10;;;;;;5075650;28;20227;-58
2023/07/06 04:52:43;;;;;;;9.43;4.90;;;20.80;36.80;;;;;;5075628;28;20564;-58
2023/07/06 04:55:09;;;;;;;6.55;3.40;;;20.80;37.10;;;;;;5075561;28;20322;-57
2023/07/06 04:57:36;;;;;;;9.90;4.57;;;20.90;37.20;;;;;;5075421;28;20759;-54
2023/07/06 05:00:17;;;;;;;6.53;4.60;;;20.90;36.70;;;;;;5075132;28;20223;-55
2023/07/06 05:02:43;;;;;;;7.15;4.75;;;21.00;36.80;;;;;;5075717;28;20165;-57
2023/07/06 05:05:17;;;;;;;6.90;4.40;;;21.00;36.70;;;;;;5075676;28;20179;-55
2023/07/06 05:07:43;;;;;;;9.05;5.70;;;21.10;36.90;;;;;;5075385;28;20185;-54
2023/07/06 05:10:09;;;;;;;8.83;4.57;;;21.20;36.90;;;;;;5074998;28;20245;-58
2023/07/06 05:12:35;;;;;;;6.90;4.53;;;21.20;36.40;;;;;;5075109;28;20821;-55
2023/07/06 05:15:02;;;;;;;6.78;4.57;;;21.30;36.10;;;;;;5075150;28;20247;-57
2023/07/06 05:17:28;;;;;;;5.07;3.90;;;21.40;36.50;;;;;;5075228;28;20242;-55
2023/07/06 05:19:53;;;;;;;8.53;4.03;;;21.50;36.00;;;;;;5075024;28;20196;-54
2023/07/06 05:22:19;;;;;;;7.67;5.10;;;21.50;36.10;;;;;;5075085;28;20635;-58
2023/07/06 05:24:46;;;;;;;6.10;3.70;;;21.60;35.80;;;;;;5073712;28;20280;-54
2023/07/06 05:27:12;;;;;;;8.77;4.23;;;21.60;36.00;;;;;;5074999;28;20403;-57
2023/07/06 05:29:38;;;;;;;8.60;4.50;;;21.70;35.30;;;;;;5069324;28;20453;-57
2023/07/06 05:32:04;;;;;;;5.93;4.17;;;21.70;34.70;;;;;;5072173;28;20417;-54
2023/07/06 05:34:30;;;;;;;10.13;5.00;;;21.70;35.30;;;;;;5073652;28;20534;-58
2023/07/06 05:36:55;;;;;;;8.03;3.90;;;21.90;35.30;;;;;;5075008;28;20442;-57
2023/07/06 05:39:21;;;;;;;6.03;3.40;;;21.90;34.90;;;;;;5074797;28;20279;-54
2023/07/06 05:41:47;;;;;;;5.67;4.10;;;22.00;34.70;;;;;;5073455;28;20712;-56
2023/07/06 05:44:14;;;;;;;9.10;4.70;;;22.00;35.30;;;;;;5074935;28;20239;-56
2023/07/06 05:46:39;;;;;;;7.73;4.10;;;22.20;35.50;;;;;;5075325;28;20423;-56
2023/07/06 05:49:05;;;;;;;5.77;3.93;;;22.30;35.20;;;;;;5074840;28;20440;-55
2023/07/06 05:51:31;;;;;;;10.40;4.80;;;22.40;35.10;;;;;;5074751;28;20184;-56
2023/07/06 05:53:58;;;;;;;8.47;4.13;;;22.60;34.50;;;;;;5075081;28;20200;-57
2023/07/06 05:56:24;;;;;;;6.67;3.20;;;22.70;34.40;;;;;;5074748;28;20748;-55
2023/07/06 05:58:51;;;;;;;10.30;4.57;;;22.80;34.10;;;;;;5074576;28;20423;-55
2023/07/06 06:01:19;;;;;;;7.00;4.10;;;22.80;33.90;;;;;;5074551;28;20403;-54
2023/07/06 06:03:45;;;;;;;7.07;3.33;;;22.90;33.70;;;;;;5074676;28;20403;-57
2023/07/06 06:06:11;;;;;;;9.37;3.97;;;23.00;33.70;;;;;;5074632;28;20460;-55
2023/07/06 06:08:38;;;;;;;10.40;3.67;;;23.10;33.90;;;;;;5074562;28;20430;-54
2023/07/06 06:11:04;;;;;;;6.13;4.43;;;23.10;34.00;;;;;;5074626;28;20501;-58
2023/07/06 06:13:30;;;;;;;6.07;4.60;;;23.30;33.50;;;;;;5074291;28;20490;-55
2023/07/06 06:15:57;;;;;;;7.17;4.13;;;23.30;33.30;;;;;;5074390;28;20423;-57
2023/07/06 06:18:24;;;;;;;7.40;4.30;;;23.40;33.40;;;;;;5074281;28;20196;-55
2023/07/06 06:20:51;;;;;;;7.53;4.50;;;23.50;33.60;;;;;;5074198;28;20407;-56
2023/07/06 06:23:20;;;;;;;6.90;3.87;;;23.60;33.80;;;;;;5074356;28;20498;-58
2023/07/06 06:25:46;;;;;;;8.20;4.20;;;23.80;33.30;;;;;;5074449;28;20497;-54
2023/07/06 06:28:12;;;;;;;11.57;4.27;;;23.90;32.90;;;;;;5073140;28;20427;-57
2023/07/06 06:30:40;;;;;;;7.53;4.47;;;24.00;33.10;;;;;;5074350;28;20778;-57
2023/07/06 06:33:09;;;;;;;6.57;3.23;;;24.10;33.20;;;;;;5074106;28;20399;-56
2023/07/06 06:35:35;;;;;;;6.13;3.73;;;24.20;33.20;;;;;;5073856;28;20437;-56
2023/07/06 06:38:05;;;;;;;6.50;4.00;;;24.20;31.00;;;;;;5073900;28;20410;-57
2023/07/06 06:40:32;;;;;;;5.80;3.33;;;24.20;31.50;;;;;;5073009;28;20472;-55
2023/07/06 06:43:00;;;;;;;7.87;3.57;;;24.20;31.80;;;;;;5073913;28;20407;-55
2023/07/06 06:45:26;;;;;;;5.20;3.70;;;24.30;32.40;;;;;;5073903;28;20811;-57
2023/07/06 06:47:52;;;;;;;7.50;3.10;;;24.40;32.20;;;;;;5073640;28;20898;-56
2023/07/06 06:50:19;;;;;;;5.17;3.40;;;24.50;31.90;;;;;;5073570;28;20407;-55
2023/07/06 06:52:46;;;;;;;7.77;2.90;;;24.50;32.00;;;;;;5073189;28;20404;-58
2023/07/06 06:55:13;;;;;;;9.00;3.47;;;24.60;31.90;;;;;;5073197;28;20957;-56
2023/07/06 06:57:39;;;;;;;3.40;2.37;;;24.60;31.40;;;;;;5072584;28;20409;-55
2023/07/06 07:00:14;;;;;;;5.30;2.57;;;24.70;31.30;;;;;;5071869;28;20517;-57
2023/07/06 07:02:41;;;;;;;5.93;3.37;;;24.80;30.80;;;;;;5073584;28;20412;-55
2023/07/06 07:05:09;;;;;;;3.97;2.90;;;24.80;31.00;;;;;;5073744;28;20410;-55
2023/07/06 07:07:38;;;;;;;7.93;3.13;;;24.90;30.90;;;;;;5073447;28;20414;-57
2023/07/06 07:10:09;;;;;;;7.80;2.60;;;24.90;30.40;;;;;;5073202;28;20488;-55
2023/07/06 07:12:40;;;;;;;6.00;2.27;;;25.00;30.00;;;;;;5073428;28;20427;-55
2023/07/06 07:15:09;;;;;;;4.93;2.80;;;25.00;30.50;;;;;;5073246;28;20478;-57
2023/07/06 07:17:35;;;;;;;7.33;2.40;;;25.10;29.10;;;;;;5073138;28;20410;-55
2023/07/06 07:20:01;;;;;;;4.40;2.80;;;25.10;30.00;;;;;;5073055;28;20914;-55
2023/07/06 07:22:27;;;;;;;7.73;2.23;;;25.10;29.60;;;;;;5072949;28;20397;-55
2023/07/06 07:24:53;;;;;;;8.93;2.23;;;25.10;29.40;;;;;;5073303;28;20434;-57
2023/07/06 07:27:19;;;;;;;5.17;2.60;;;25.30;30.20;;;;;;5073342;28;20458;-53
2023/07/06 07:29:47;;;;;;;8.37;2.97;;;25.30;29.10;;;;;;5072611;28;20442;-54
2023/07/06 07:32:13;;;;;;;5.70;2.63;;;25.30;29.30;;;;;;5073074;28;20395;-54
2023/07/06 07:34:40;;;;;;;3.47;2.47;;;25.40;29.30;;;;;;5072809;28;20472;-57
2023/07/06 07:37:10;;;;;;;4.50;2.87;;;25.50;29.40;;;;;;5072968;28;20406;-55
2023/07/06 07:39:36;;;;;;;4.00;2.90;;;25.60;29.10;;;;;;5072813;28;20552;-55
2023/07/06 07:42:03;;;;;;;4.40;2.60;;;25.70;29.50;;;;;;5072687;28;20819;-57
2023/07/06 07:44:29;;;;;;;3.73;2.57;;;25.80;30.20;;;;;;5073004;28;20471;-55
2023/07/06 07:46:55;;;;;;;3.40;2.57;;;25.90;28.00;;;;;;5072702;28;20488;-58
2023/07/06 07:49:21;;;;;;;7.00;3.90;;;25.90;28.20;;;;;;5072858;28;20794;-56
2023/07/06 07:51:47;;;;;;;4.10;3.10;;;25.90;28.90;;;;;;5073224;28;20498;-55
2023/07/06 07:54:12;;;;;;;4.00;2.80;;;26.00;28.80;;;;;;5072923;28;20606;-58
2023/07/06 07:56:40;;;;;;;4.57;2.53;;;26.00;27.50;;;;;;5072651;28;20636;-56
2023/07/06 07:59:05;;;;;;;4.60;2.57;;;26.00;27.50;;;;;;5072764;28;20476;-56
2023/07/06 08:01:32;;;;;;;4.13;2.30;;;26.00;28.30;;;;;;5072628;28;20411;-58
2023/07/06 08:03:58;;;;;;;5.20;2.60;;;26.10;28.30;;;;;;5072507;28;20177;-55
2023/07/06 08:06:24;;;;;;;9.17;2.20;;;26.20;28.00;;;;;;5072810;28;20417;-55
2023/07/06 08:08:51;;;;;;;5.13;2.93;;;26.20;28.60;;;;;;5072406;28;20938;-56
2023/07/06 08:11:22;;;;;;;3.60;2.37;;;26.30;28.40;;;;;;5072362;28;20181;-58
2023/07/06 08:13:53;;;;;;;6.83;2.30;;;26.50;28.50;;;;;;5072741;28;20520;-56
2023/07/06 08:16:22;;;;;;;5.20;2.73;;;26.60;27.10;;;;;;5072534;28;20445;-55
2023/07/06 08:18:48;;;;;;;3.70;2.90;;;26.50;26.80;;;;;;5072481;28;20501;-58
2023/07/06 08:21:15;;;;;;;5.23;2.07;;;26.50;26.90;;;;;;5072167;28;20464;-55
2023/07/06 08:23:48;;;;;;;5.47;2.57;;;26.50;27.00;;;;;;5072234;28;20410;-55
2023/07/06 08:26:15;;;;;;;3.87;2.00;;;26.60;27.30;;;;;;5071427;28;20489;-57
2023/07/06 08:28:41;;;;;;;5.67;2.50;;;26.60;28.60;;;;;;5072188;28;20841;-54
2023/07/06 08:31:14;;;;;;;5.10;2.43;;;26.80;27.50;;;;;;5072001;28;20407;-55
2023/07/06 08:33:40;;;;;;;4.70;2.57;;;26.90;27.30;;;;;;5072203;28;20222;-57
2023/07/06 08:36:07;;;;;;;4.20;2.00;;;27.00;27.20;;;;;;5072062;28;20854;-54
2023/07/06 08:38:34;;;;;;;5.00;2.50;;;27.00;27.60;;;;;;5071330;28;20540;-57
2023/07/06 08:41:03;;;;;;;5.17;3.17;;;27.20;28.40;;;;;;5072011;28;20414;-55
2023/07/06 08:43:34;;;;;;;4.97;2.30;;;27.20;28.30;;;;;;5072222;28;20419;-55
2023/07/06 08:46:03;;;;;;;4.70;2.47;;;27.40;26.70;;;;;;5072173;28;20419;-58
2023/07/06 08:48:32;;;;;;;2.90;2.10;;;27.40;26.10;;;;;;5072435;28;20442;-54
2023/07/06 08:51:12;;;;;;;4.87;2.60;;;27.30;26.40;;;;;;5071639;28;20411;-55
2023/07/06 08:53:43;;;;;;;4.27;2.40;;;27.40;27.00;;;;;;5072068;28;20487;-57
2023/07/06 08:56:14;;;;;;;6.73;2.50;;;27.50;26.90;;;;;;5072150;28;20403;-55
2023/07/06 08:58:43;;;;;;;4.57;2.47;;;27.50;26.80;;;;;;5072102;28;20459;-57
2023/07/06 09:01:14;;;;;;;6.87;2.90;;;27.50;26.00;;;;;;5071676;28;20407;-55
2023/07/06 09:03:55;;;;;;;5.40;2.67;;;27.50;25.80;;;;;;5072323;28;20801;-55
2023/07/06 09:06:27;;;;;;;3.90;2.20;;;27.60;25.50;;;;;;5071986;28;20402;-55
2023/07/06 09:09:01;;;;;;;10.43;3.20;;;27.50;26.70;;;;;;5072163;28;20427;-57
2023/07/06 09:11:33;;;;;;;7.43;2.63;;;27.70;28.00;;;;;;5071476;28;20413;-53
2023/07/06 09:14:06;;;;;;;6.87;2.63;;;27.70;27.40;;;;;;5071409;28;20470;-56
2023/07/06 09:16:55;;;;;;;6.13;2.50;;;27.80;26.00;;;;;;5072370;28;20395;-55
2023/07/06 09:19:24;;;;;;;4.40;2.40;;;27.80;26.00;;;;;;5075128;28;20430;-56
2023/07/06 09:21:54;;;;;;;5.13;2.30;;;27.70;27.00;;;;;;5075094;28;20394;-57
2023/07/06 09:24:27;;;;;;;4.00;2.30;;;27.80;26.70;;;;;;5074893;28;20419;-57
2023/07/06 09:26:57;;;;;;;4.30;1.93;;;27.90;26.40;;;;;;5075361;28;20415;-54
2023/07/06 09:29:32;;;;;;;5.90;2.57;;;28.00;26.40;;;;;;5074887;28;20466;-54
2023/07/06 09:32:19;;;;;;;4.50;2.30;;;28.10;27.40;;;;;;5075019;28;20830;-56
2023/07/06 09:34:50;;;;;;;7.20;2.93;;;28.30;26.10;;;;;;5074837;28;20442;-54
2023/07/06 09:37:20;;;;;;;5.57;2.93;;;28.30;26.40;;;;;;5074816;28;20751;-55
2023/07/06 09:40:09;;;;;;;4.83;2.60;;;28.30;27.10;;;;;;5074675;28;20438;-57
2023/07/06 09:42:35;;;;;;;4.00;2.30;;;28.40;25.60;;;;;;5074938;28;20406;-55
2023/07/06 09:45:13;;;;;;;4.70;2.47;;;28.40;25.90;;;;;;5074575;28;20460;-54
2023/07/06 09:47:47;;;;;;;5.27;2.70;;;28.50;26.00;;;;;;5074635;28;20419;-58
2023/07/06 09:50:20;;;;;;;7.73;2.60;;;28.50;26.10;;;;;;5074424;28;20391;-54
2023/07/06 09:52:46;;;;;;;5.87;2.50;;;28.70;26.20;;;;;;5074616;28;20411;-54
2023/07/06 09:55:29;;;;;;;4.93;2.47;;;28.60;24.90;;;;;;5074414;28;20541;-59
2023/07/06 09:57:59;;;;;;;4.40;1.90;;;28.70;26.50;;;;;;5074359;28;20774;-54
2023/07/06 10:00:33;;;;;;;4.70;2.57;;;28.80;26.70;;;;;;5074255;28;20848;-52
2023/07/06 10:03:28;;;;;;;5.27;2.70;;;28.90;24.90;;;;;;5073280;28;20412;-58
2023/07/06 10:06:33;;;;;;;4.80;2.40;;;29.00;24.20;;;;;;5074226;28;20411;-54
2023/07/06 10:09:24;;;;;;;4.50;1.90;;;29.10;25.50;;;;;;5083780;28;20442;-56
2023/07/06 10:11:53;;;;;;;4.77;2.47;;;29.10;24.60;;;;;;5074073;28;20415;-56
2023/07/06 10:14:31;;;;;;;5.80;2.70;;;29.10;24.20;;;;;;5073995;28;20478;-53
2023/07/06 10:17:07;;;;;;;5.50;2.13;;;29.20;24.00;;;;;;5074250;28;20822;-57
2023/07/06 10:19:46;;;;;;;3.77;2.47;;;29.10;24.00;;;;;;5073766;28;20437;-55
2023/07/06 10:22:54;;;;;;;9.03;2.57;;;29.00;24.60;;;;;;5074028;28;20391;-55
2023/07/06 10:25:42;;;;;;;7.70;3.00;;;29.00;23.40;;;;;;5074062;28;20703;-54
2023/07/06 10:28:26;;;;;;;5.67;2.83;;;29.00;24.80;;;;;;5073822;28;20427;-55
2023/07/06 10:30:55;;;;;;;7.47;2.80;;;29.10;25.30;;;;;;5073524;28;20792;-55
2023/07/06 10:33:53;;;;;;;7.50;2.90;;;29.30;25.80;;;;;;5073626;28;20454;-57
2023/07/06 10:36:19;;;;;;;4.43;2.13;;;29.50;25.70;;;;;;5073655;28;20430;-57
2023/07/06 10:38:48;;;;;;;5.50;2.13;;;29.70;26.50;;;;;;5073608;28;20978;-54
2023/07/06 10:41:14;;;;;;;4.50;2.20;;;29.80;24.10;;;;;;5073341;28;20407;-55
2023/07/06 10:43:42;;;;;;;6.57;2.67;;;29.90;23.60;;;;;;5073535;28;20433;-56
2023/07/06 10:46:31;;;;;;;3.73;2.47;;;30.00;23.20;;;;;;5073749;28;20541;-57
2023/07/06 10:49:16;;;;;;;5.73;3.00;;;30.10;22.00;;;;;;5073610;28;20526;-57
2023/07/06 10:51:51;;;;;;;3.70;2.00;;;30.00;23.20;;;;;;5073331;28;20399;-54
2023/07/06 10:54:26;;;;;;;5.00;2.50;;;30.00;23.20;;;;;;5073269;28;20546;-55
2023/07/06 10:57:11;;;;;;;7.20;2.80;;;30.00;22.10;;;;;;5073411;28;20576;-55
2023/07/06 10:59:41;;;;;;;5.67;2.23;;;30.10;24.80;;;;;;5072906;28;20533;-55
2023/07/06 11:02:33;;;;;;;3.70;2.20;;;30.00;22.70;;;;;;5073005;28;20406;-54
2023/07/06 11:05:10;;;;;;;9.07;2.90;;;29.90;23.10;;;;;;5073135;28;20441;-58
2023/07/06 11:07:43;;;;;;;6.67;2.50;;;30.10;24.70;;;;;;5073404;28;20403;-55
2023/07/06 11:10:12;;;;;;;5.00;2.70;;;30.10;23.60;;;;;;5072809;28;20494;-54
2023/07/06 11:12:57;;;;;;;4.93;2.73;;;30.20;23.90;;;;;;5072811;28;20768;-58
2023/07/06 11:15:43;;;;;;;8.00;2.30;;;30.20;23.50;;;;;;5072791;28;20858;-54
2023/07/06 11:18:24;;;;;;;5.17;2.70;;;30.00;23.80;;;;;;5072118;28;20437;-56
2023/07/06 11:20:59;;;;;;;3.60;2.47;;;29.80;23.90;;;;;;5072681;28;20402;-54
2023/07/06 11:23:54;;;;;;;5.17;2.73;;;29.70;23.60;;;;;;5072808;28;21062;-57
2023/07/06 11:26:30;;;;;;;4.40;2.10;;;29.60;24.10;;;;;;5072572;28;20407;-57
2023/07/06 11:28:56;;;;;;;4.97;2.50;;;29.60;24.70;;;;;;5072525;28;20431;-54
2023/07/06 11:31:25;;;;;;;4.43;2.77;;;29.70;24.60;;;;;;5072268;28;20408;-57
2023/07/06 11:34:22;;;;;;;4.73;2.30;;;30.00;23.40;;;;;;5072523;28;20201;-55
2023/07/06 11:36:55;;;;;;;5.40;2.07;;;30.10;22.20;;;;;;5071355;28;20949;-54
2023/07/06 11:39:26;;;;;;;6.47;2.03;;;29.90;22.40;;;;;;5071711;28;20451;-57
2023/07/06 11:42:01;;;;;;;4.70;2.40;;;30.00;24.90;;;;;;5072748;28;20411;-54
2023/07/06 11:44:51;;;;;;;6.80;2.40;;;30.20;24.70;;;;;;5072749;28;20846;-55
2023/07/06 11:47:25;;;;;;;4.57;2.30;;;30.40;23.80;;;;;;5072634;28;20391;-54
2023/07/06 11:49:59;;;;;;;5.93;2.07;;;30.50;22.70;;;;;;5072038;28;20487;-55
2023/07/06 11:52:29;;;;;;;4.33;1.83;;;30.60;23.30;;;;;;5072584;28;20544;-56
2023/07/06 11:55:14;;;;;;;4.73;2.50;;;30.60;21.40;;;;;;5072229;28;20450;-54
2023/07/06 11:58:04;;;;;;;8.97;2.10;;;30.60;23.50;;;;;;5072547;28;20466;-54
2023/07/06 12:03:07;;;;;;;6.03;2.00;;;30.40;22.30;;;;;;5072190;28;20407;-54
2023/07/06 12:05:39;;;;;;;7.10;2.47;;;30.50;22.50;;;;;;5072208;28;20490;-56
2023/07/06 12:08:16;;;;;;;3.23;1.80;;;30.60;22.90;;;;;;5072049;28;20431;-57
2023/07/06 12:10:45;;;;;;;3.50;2.30;;;30.80;22.90;;;;;;5071897;28;20744;-54
2023/07/06 12:13:19;;;;;;;2.80;1.67;;;31.00;23.70;;;;;;5071915;28;20462;-55
2023/07/06 12:15:47;;;;;;;9.67;2.20;;;31.20;21.80;;;;;;5072115;28;20402;-54
2023/07/06 12:18:15;;;;;;;4.90;2.27;;;31.10;19.70;;;;;;5072045;28;20421;-57
2023/07/06 12:20:42;;;;;;;3.63;1.93;;;31.00;18.90;;;;;;5071778;28;20391;-56
2023/07/06 12:23:12;;;;;;;5.67;1.97;;;30.90;19.60;;;;;;5072057;28;20894;-54
2023/07/06 12:25:41;;;;;;;6.10;2.57;;;30.90;19.90;;;;;;5071913;28;20421;-56
2023/07/06 12:28:11;;;;;;;5.23;2.07;;;31.00;22.60;;;;;;5071773;28;20425;-56
2023/07/06 12:30:39;;;;;;;4.40;1.97;;;31.10;22.80;;;;;;5071703;28;20811;-53
2023/07/06 12:33:10;;;;;;;3.57;2.00;;;31.30;20.80;;;;;;5072029;28;20774;-57
2023/07/06 12:35:37;;;;;;;3.93;2.30;;;31.40;21.60;;;;;;5071187;28;20454;-54
2023/07/06 12:38:09;;;;;;;5.10;2.67;;;31.60;21.30;;;;;;5071924;28;20897;-54
2023/07/06 12:40:35;;;;;;;4.80;2.10;;;31.80;21.90;;;;;;5072014;28;20413;-56
2023/07/06 12:43:02;;;;;;;3.70;2.00;;;31.90;21.00;;;;;;5072061;28;20436;-54
2023/07/06 12:45:30;;;;;;;3.70;2.03;;;32.00;20.80;;;;;;5071902;28;20474;-54
2023/07/06 12:48:05;;;;;;;4.93;2.20;;;32.10;19.70;;;;;;5072196;28;20500;-54
2023/07/06 12:50:37;;;;;;;4.90;2.07;;;32.10;18.90;;;;;;5072661;28;20755;-53
2023/07/06 12:53:13;;;;;;;3.47;1.83;;;32.00;20.80;;;;;;5076005;28;20413;-57
2023/07/06 12:55:44;;;;;;;3.90;2.13;;;32.00;19.60;;;;;;5076224;28;20440;-54
2023/07/06 12:58:32;;;;;;;5.50;2.17;;;31.80;20.00;;;;;;5075894;28;20513;-57
2023/07/06 13:01:07;;;;;;;3.90;2.57;;;31.80;21.10;;;;;;5075687;28;20424;-54
2023/07/06 13:03:48;;;;;;;3.43;2.07;;;31.80;21.00;;;;;;5075752;28;20410;-55
2023/07/06 13:06:15;;;;;;;4.97;2.07;;;31.90;19.60;;;;;;5075831;28;20404;-57